Time;durP1;ratioP1;P1;durP2;ratioP2;P2;SDS_P1;SDS_P2;PMS_P1;PMS_P2;Temp;Humidity;BMP_temperature;BMP_pressure;BME280_temperature;BME280_humidity;BME280_pressure;Samples;Min_cycle;Max_cycle;Signal;HPM_P1;HPM_P2
2023/07/01 00:01:05;;;;;;;8.00;4.20;;;;;;;19.28;85.62;98331.39;273525;1267;22537;-88
2023/07/01 00:07:21;;;;;;;4.90;3.90;;;;;;;19.22;85.03;98329.43;270528;1267;22630;-89
2023/07/01 00:13:24;;;;;;;5.80;4.00;;;;;;;19.20;84.88;98330.59;272489;1267;22446;-89
2023/07/01 00:19:25;;;;;;;5.20;3.80;;;;;;;19.22;84.63;98330.14;273411;1269;22537;-88
2023/07/01 00:25:33;;;;;;;5.20;3.80;;;;;;;19.24;84.64;98325.71;271205;1262;22932;-87
2023/07/01 00:31:35;;;;;;;6.10;3.40;;;;;;;19.24;84.69;98325.08;271990;1260;23901;-87
2023/07/01 00:37:42;;;;;;;4.80;3.30;;;;;;;19.24;84.95;98325.73;271755;1269;24244;-87
2023/07/01 00:43:45;;;;;;;4.30;3.60;;;;;;;19.19;85.08;98324.20;270464;1269;23147;-87
2023/07/01 00:49:47;;;;;;;5.00;4.10;;;;;;;19.13;85.20;98316.12;270441;1269;22548;-87
2023/07/01 00:55:48;;;;;;;4.50;3.70;;;;;;;19.05;85.64;98314.66;270379;1270;22525;-87
2023/07/01 01:01:52;;;;;;;5.10;3.50;;;;;;;18.96;85.83;98314.23;270195;1268;22509;-87
2023/07/01 01:08:07;;;;;;;5.10;4.00;;;;;;;18.81;86.63;98308.61;270722;1269;25277;-86
2023/07/01 01:14:11;;;;;;;6.50;4.00;;;;;;;18.70;87.66;98306.67;270162;1269;25244;-87
2023/07/01 01:20:20;;;;;;;6.00;4.30;;;;;;;18.59;87.52;98295.92;272791;1261;22535;-88
2023/07/01 01:26:23;;;;;;;7.60;4.70;;;;;;;18.47;87.54;98283.42;270523;1270;22652;-89
2023/07/01 01:32:24;;;;;;;5.60;4.70;;;;;;;18.41;87.63;98269.35;272483;1271;22208;-88
2023/07/01 01:38:33;;;;;;;6.50;4.70;;;;;;;18.41;87.97;98271.02;272133;1269;22454;-86
2023/07/01 01:44:45;;;;;;;5.20;4.20;;;;;;;18.43;88.55;98268.98;271293;1269;24493;-87
2023/07/01 01:50:49;;;;;;;5.80;4.10;;;;;;;18.41;88.97;98266.48;271845;1271;22216;-87
2023/07/01 01:56:51;;;;;;;5.20;4.60;;;;;;;18.37;89.56;98269.24;271869;1269;22552;-88
2023/07/01 02:02:53;;;;;;;8.50;5.00;;;;;;;18.36;89.86;98268.54;269460;1265;25514;-88
2023/07/01 02:08:55;;;;;;;6.10;4.30;;;;;;;18.34;90.50;98271.55;269365;1269;23177;-87
2023/07/01 02:15:02;;;;;;;7.80;5.40;;;;;;;18.26;90.77;98276.59;270264;1270;24196;-86
2023/07/01 02:21:06;;;;;;;5.60;5.00;;;;;;;18.20;91.53;98277.67;269263;1269;22536;-88
2023/07/01 02:27:08;;;;;;;6.20;5.10;;;;;;;18.16;92.17;98282.38;270792;1255;22476;-86
2023/07/01 02:33:15;;;;;;;5.90;4.80;;;;;;;18.13;92.28;98274.70;270970;1270;22428;-87
2023/07/01 02:39:17;;;;;;;;;;;;;;;18.08;92.82;98271.70;273385;1269;22522;-87
2023/07/01 02:45:25;;;;;;;6.60;5.40;;;;;;;18.03;93.05;98260.71;273915;1269;22446;-87
2023/07/01 02:51:58;;;;;;;7.40;5.60;;;;;;;17.98;93.62;98257.39;271976;1260;22587;-87
2023/07/01 02:58:00;;;;;;;6.00;5.50;;;;;;;17.93;94.45;98255.16;270564;1269;23679;-88
2023/07/01 03:04:06;;;;;;;6.70;6.00;;;;;;;17.83;94.99;98249.77;272668;1269;22194;-87
2023/07/01 03:10:58;;;;;;;6.70;5.80;;;;;;;17.68;95.63;98241.10;273752;1270;22076;-87
2023/07/01 03:17:04;;;;;;;10.30;6.40;;;;;;;17.66;96.85;98257.30;273917;1264;22341;-88
2023/07/01 03:23:15;;;;;;;7.30;6.20;;;;;;;17.63;96.88;98272.88;272232;1270;23313;-88
2023/07/01 03:29:17;;;;;;;6.60;6.00;;;;;;;17.58;98.18;98294.07;271797;1271;23750;-89
2023/07/01 03:35:47;;;;;;;8.00;7.30;;;;;;;17.60;98.67;98288.62;269912;1267;22695;-85
2023/07/01 03:41:53;;;;;;;9.00;7.50;;;;;;;17.56;99.13;98271.05;272572;1270;22544;-84
2023/07/01 03:47:56;;;;;;;8.90;7.20;;;;;;;17.49;99.77;98270.84;273346;1274;22174;-84
2023/07/01 03:53:58;;;;;;;10.20;8.10;;;;;;;17.42;100.00;98272.35;272167;1268;22913;-84
2023/07/01 04:00:41;;;;;;;12.00;7.00;;;;;;;17.40;100.00;98273.45;271456;1267;22203;-84
2023/07/01 04:06:43;;;;;;;8.30;7.50;;;;;;;17.42;100.00;98272.67;271752;1254;23645;-86
2023/07/01 04:12:48;;;;;;;9.60;7.80;;;;;;;17.40;100.00;98263.46;271677;1267;22539;-85
2023/07/01 04:18:53;;;;;;;8.70;7.80;;;;;;;17.40;100.00;98258.65;273057;1269;25245;-87
2023/07/01 04:25:39;;;;;;;9.30;8.10;;;;;;;17.38;100.00;98259.59;273578;1275;22172;-83
2023/07/01 04:31:41;;;;;;;9.60;8.00;;;;;;;17.38;100.00;98266.14;273196;1269;22195;-83
2023/07/01 04:37:45;;;;;;;15.10;8.80;;;;;;;17.37;100.00;98267.59;273190;1270;22576;-84
2023/07/01 04:43:47;;;;;;;9.40;8.40;;;;;;;17.38;100.00;98275.38;270147;1261;22633;-85
2023/07/01 04:50:13;;;;;;;16.10;9.30;;;;;;;17.39;100.00;98280.17;269811;1267;22204;-86
2023/07/01 04:56:15;;;;;;;13.60;10.30;;;;;;;17.41;100.00;98291.59;270771;1267;24477;-86
2023/07/01 05:02:16;;;;;;;12.60;10.30;;;;;;;17.41;100.00;98283.52;271860;1267;22398;-85
2023/07/01 05:08:19;;;;;;;10.80;9.80;;;;;;;17.43;100.00;98286.23;274253;1257;22199;-85
2023/07/01 05:14:45;;;;;;;11.30;10.00;;;;;;;17.44;100.00;98304.39;273700;1269;22499;-85
2023/07/01 05:20:50;;;;;;;10.60;9.30;;;;;;;17.44;100.00;98304.08;273967;1267;22202;-86
2023/07/01 05:26:51;;;;;;;10.30;9.00;;;;;;;17.43;100.00;98305.61;271817;1257;22635;-86
2023/07/01 05:32:54;;;;;;;13.50;10.00;;;;;;;17.44;100.00;98315.55;271855;1268;22415;-86
2023/07/01 05:38:56;;;;;;;10.30;9.10;;;;;;;17.43;100.00;98315.31;269803;1267;24358;-87
2023/07/01 05:45:00;;;;;;;11.50;10.00;;;;;;;17.44;100.00;98317.45;274065;1270;22193;-87
2023/07/01 05:51:03;;;;;;;11.60;9.40;;;;;;;17.46;100.00;98307.75;272260;1260;22567;-87
2023/07/01 05:57:05;;;;;;;12.10;9.30;;;;;;;17.46;100.00;98306.00;270639;1267;23044;-87
2023/07/01 06:03:13;;;;;;;10.50;9.30;;;;;;;17.47;100.00;98306.32;269689;1267;22579;-86
2023/07/01 06:09:15;;;;;;;9.40;8.50;;;;;;;17.47;100.00;98305.52;269425;1262;166220;-89
2023/07/01 06:15:18;;;;;;;9.90;8.50;;;;;;;17.48;100.00;98315.77;270231;1269;24295;-87
2023/07/01 06:21:29;;;;;;;11.50;9.50;;;;;;;17.48;100.00;98323.38;272772;1271;22191;-87
2023/07/01 06:27:55;;;;;;;11.60;9.70;;;;;;;17.46;100.00;98329.98;273692;1274;22241;-85
2023/07/01 06:34:27;;;;;;;12.40;9.70;;;;;;;17.41;100.00;98330.17;272286;1269;22408;-84
2023/07/01 06:40:31;;;;;;;11.80;9.90;;;;;;;17.40;100.00;98322.59;270304;1264;22582;-84
2023/07/01 06:54:19;;;;;;;12.30;9.70;;;;;;;17.28;100.00;98319.44;269348;1273;22543;-86
2023/07/01 07:00:45;;;;;;;13.90;10.70;;;;;;;17.30;100.00;98324.84;271087;1268;23027;-87
2023/07/01 07:06:49;;;;;;;11.50;10.20;;;;;;;17.37;100.00;98326.87;273873;1264;23226;-86
2023/07/01 07:13:17;;;;;;;11.80;10.40;;;;;;;17.45;100.00;98325.48;273660;1269;22994;-87
2023/07/01 07:19:20;;;;;;;13.30;9.00;;;;;;;17.48;100.00;98323.99;273407;1270;22231;-86
2023/07/01 07:25:25;;;;;;;11.20;9.50;;;;;;;17.49;100.00;98325.24;273809;1268;23283;-86
2023/07/01 07:31:28;;;;;;;10.70;9.60;;;;;;;17.49;100.00;98323.73;273833;1268;23349;-87
2023/07/01 07:37:30;;;;;;;9.40;8.50;;;;;;;17.51;100.00;98324.14;273778;1268;23204;-86
2023/07/01 07:43:32;;;;;;;11.30;8.40;;;;;;;17.55;100.00;98328.16;272666;1268;23270;-86
2023/07/01 07:49:34;;;;;;;10.10;9.20;;;;;;;17.59;100.00;98322.34;273733;1268;22184;-86
2023/07/01 07:55:36;;;;;;;10.30;9.10;;;;;;;17.63;100.00;98323.73;273825;1269;23679;-85
2023/07/01 08:01:38;;;;;;;10.10;8.80;;;;;;;17.67;100.00;98317.98;273586;1273;22360;-86
2023/07/01 08:07:40;;;;;;;9.60;8.70;;;;;;;17.72;100.00;98323.30;273332;1268;22418;-85
2023/07/01 08:13:42;;;;;;;10.30;9.00;;;;;;;17.77;100.00;98320.25;273414;1268;23145;-85
2023/07/01 08:19:43;;;;;;;10.00;8.90;;;;;;;17.78;100.00;98310.41;273861;1271;22218;-86
2023/07/01 08:25:45;;;;;;;9.70;8.70;;;;;;;17.74;100.00;98306.35;274055;1269;22433;-85
2023/07/01 08:31:47;;;;;;;8.60;7.50;;;;;;;17.70;100.00;98305.65;272985;1268;25340;-86
2023/07/01 08:37:59;;;;;;;8.90;8.00;;;;;;;17.63;100.00;98305.64;270661;1268;22560;-85
2023/07/01 08:44:05;;;;;;;11.30;9.00;;;;;;;17.56;100.00;98304.55;270920;1268;22550;-85
2023/07/01 08:50:08;;;;;;;9.40;8.10;;;;;;;17.58;100.00;98305.04;271359;1257;22618;-87
2023/07/01 08:56:09;;;;;;;9.00;8.00;;;;;;;17.65;100.00;98299.08;271189;1268;24347;-85
2023/07/01 09:02:15;;;;;;;10.20;8.70;;;;;;;17.71;100.00;98292.12;270758;1268;22198;-85
2023/07/01 09:08:17;;;;;;;8.20;7.40;;;;;;;17.73;100.00;98284.63;270255;1268;22524;-86
2023/07/01 09:14:20;;;;;;;8.90;7.60;;;;;;;17.70;100.00;98283.52;270315;1268;23184;-84
2023/07/01 09:20:42;;;;;;;10.80;8.70;;;;;;;17.72;100.00;98286.70;273628;1268;22174;-84
2023/07/01 09:26:52;;;;;;;8.20;7.40;;;;;;;17.79;100.00;98283.27;273817;1268;22185;-86
2023/07/01 09:33:16;;;;;;;8.70;7.80;;;;;;;17.87;100.00;98283.33;271594;1259;22568;-86
2023/07/01 09:39:32;;;;;;;10.00;7.50;;;;;;;18.00;100.00;98282.62;273849;1256;22203;-84
2023/07/01 09:45:34;;;;;;;10.30;8.10;;;;;;;18.15;100.00;98282.33;273440;1268;22372;-84
2023/07/01 09:52:05;;;;;;;8.20;7.30;;;;;;;18.36;100.00;98277.73;273770;1268;22177;-86
2023/07/01 09:58:09;;;;;;;8.30;7.30;;;;;;;18.62;100.00;98266.45;274054;1269;22192;-85
2023/07/01 10:04:11;;;;;;;8.40;7.50;;;;;;;18.80;100.00;98260.42;271650;1268;22601;-86
2023/07/01 10:10:17;;;;;;;8.30;7.50;;;;;;;18.94;100.00;98253.67;269447;1257;25287;-86
2023/07/01 10:16:19;;;;;;;8.30;6.90;;;;;;;19.20;100.00;98246.25;270117;1268;22246;-86
2023/07/01 10:22:23;;;;;;;6.70;6.10;;;;;;;19.63;100.00;98243.14;273416;1268;22443;-86
2023/07/01 10:28:26;;;;;;;8.30;6.90;;;;;;;19.88;100.00;98238.86;273002;1265;22319;-86
2023/07/01 10:34:52;;;;;;;6.10;5.50;;;;;;;20.15;100.00;98238.70;273465;1262;22513;-85
2023/07/01 10:40:55;;;;;;;8.10;6.00;;;;;;;20.32;100.00;98234.06;273356;1268;22206;-84
2023/07/01 10:47:13;;;;;;;5.80;5.30;;;;;;;20.33;100.00;98228.72;273160;1268;23248;-84
2023/07/01 10:53:19;;;;;;;6.60;6.00;;;;;;;20.39;100.00;98228.77;272862;1268;22567;-84
2023/07/01 10:59:27;;;;;;;9.90;7.00;;;;;;;20.55;100.00;98225.41;270728;1260;22440;-84
2023/07/01 11:05:30;;;;;;;8.10;7.30;;;;;;;20.64;100.00;98216.70;273333;1267;23538;-84
2023/07/01 11:11:32;;;;;;;7.10;6.30;;;;;;;20.85;100.00;98210.34;273352;1263;22409;-84
2023/07/01 11:17:34;;;;;;;7.60;6.00;;;;;;;21.12;100.00;98206.02;272984;1256;22431;-84
2023/07/01 11:23:38;;;;;;;8.10;5.80;;;;;;;21.48;100.00;98198.42;272217;1268;26072;-84
2023/07/01 11:29:44;;;;;;;8.30;5.70;;;;;;;21.66;100.00;98186.79;271283;1265;22503;-84
2023/07/01 11:35:50;;;;;;;6.00;5.20;;;;;;;21.89;100.00;98186.78;271357;1262;22341;-85
2023/07/01 11:41:53;;;;;;;6.80;5.30;;;;;;;22.29;100.00;98182.40;273810;1268;23284;-84
2023/07/01 11:47:55;;;;;;;7.40;5.00;;;;;;;22.55;100.00;98178.61;272825;1257;24938;-85
2023/07/01 11:53:57;;;;;;;8.70;4.90;;;;;;;22.78;100.00;98170.54;271166;1253;22462;-85
2023/07/01 12:00:01;;;;;;;5.40;4.80;;;;;;;22.74;100.00;98175.48;272940;1259;22642;-85
2023/07/01 12:06:25;;;;;;;7.30;4.90;;;;;;;22.64;100.00;98178.67;272364;1270;22447;-85
2023/07/01 12:12:32;;;;;;;5.80;5.20;;;;;;;22.67;100.00;98180.81;272895;1270;25137;-85
2023/07/01 12:18:34;;;;;;;5.50;5.00;;;;;;;22.90;100.00;98171.25;272396;1270;23481;-85
2023/07/01 12:24:36;;;;;;;7.60;5.80;;;;;;;22.86;100.00;98166.64;273514;1260;23186;-85
2023/07/01 12:30:39;;;;;;;11.60;5.50;;;;;;;22.90;100.00;98157.55;271392;1259;22420;-85
2023/07/01 12:36:44;;;;;;;6.80;5.90;;;;;;;23.10;99.50;98147.84;271044;1268;22387;-86
2023/07/01 12:42:47;;;;;;;7.00;5.90;;;;;;;23.17;99.78;98139.30;273785;1268;22128;-86
2023/07/01 12:48:49;;;;;;;6.30;5.70;;;;;;;23.11;99.17;98133.95;272621;1260;25095;-86
2023/07/01 12:54:52;;;;;;;6.80;5.90;;;;;;;23.11;98.13;98132.79;271678;1268;22529;-86
2023/07/01 13:00:56;;;;;;;6.00;5.40;;;;;;;23.13;98.42;98124.61;270998;1268;22660;-86
2023/07/01 13:06:58;;;;;;;6.50;5.60;;;;;;;23.21;97.74;98124.10;270671;1265;22524;-87
2023/07/01 13:13:00;;;;;;;7.90;6.00;;;;;;;23.21;97.50;98118.01;270416;1252;22576;-88
2023/07/01 13:19:09;;;;;;;7.20;6.50;;;;;;;23.26;96.79;98112.70;269826;1264;23237;-86
2023/07/01 13:25:34;;;;;;;13.40;7.00;;;;;;;23.24;95.67;98111.81;270522;1268;22208;-86
2023/07/01 13:31:36;;;;;;;7.90;7.10;;;;;;;23.34;95.15;98105.15;271207;1268;22500;-86
2023/07/01 13:37:38;;;;;;;7.40;6.10;;;;;;;23.41;94.66;98100.66;270135;1255;22530;-86
2023/07/01 13:43:40;;;;;;;6.60;6.00;;;;;;;23.37;93.53;98095.92;270455;1268;23249;-87
2023/07/01 13:49:56;;;;;;;7.50;6.80;;;;;;;23.23;93.11;98092.72;269937;1265;22539;-86
2023/07/01 13:56:01;;;;;;;8.00;6.90;;;;;;;23.12;92.70;98087.31;270308;1257;22608;-87
2023/07/01 14:02:11;;;;;;;7.50;6.40;;;;;;;23.13;93.36;98081.86;270805;1257;22551;-87
2023/07/01 14:08:13;;;;;;;8.80;6.90;;;;;;;23.17;93.67;98081.80;269942;1268;22191;-86
2023/07/01 14:15:15;;;;;;;;;;;;;;;;;;;;;
2023/07/01 14:22:51;;;;;;;8.50;7.70;;;;;;;23.46;93.09;98059.73;272706;1268;23179;-87
2023/07/01 14:29:41;;;;;;;8.50;7.40;;;;;;;23.48;92.53;98049.03;272691;1267;22504;-85
2023/07/01 14:35:48;;;;;;;7.40;6.70;;;;;;;23.26;91.81;98047.95;273188;1258;22358;-87
2023/07/01 14:41:50;;;;;;;7.90;7.10;;;;;;;23.30;92.06;98044.56;271146;1268;22674;-86
2023/07/01 14:47:52;;;;;;;8.30;7.40;;;;;;;23.39;91.37;98039.55;271392;1268;22556;-87
2023/07/01 14:53:55;;;;;;;9.90;8.50;;;;;;;23.33;91.10;98044.58;270480;1257;24276;-87
2023/07/01 14:59:57;;;;;;;9.40;8.40;;;;;;;23.27;90.65;98047.38;271006;1268;22495;-85
2023/07/01 15:06:00;;;;;;;9.30;8.40;;;;;;;23.32;90.46;98042.79;271502;1268;22284;-86
2023/07/01 15:12:05;;;;;;;9.00;8.20;;;;;;;23.38;90.77;98036.58;272912;1258;22285;-87
2023/07/01 15:18:27;;;;;;;11.70;9.80;;;;;;;23.48;90.40;98028.77;273172;1268;23117;-86
2023/07/01 15:24:53;;;;;;;11.20;8.70;;;;;;;23.65;90.09;98031.73;273320;1271;23109;-86
2023/07/01 15:30:56;;;;;;;9.30;8.40;;;;;;;23.67;89.16;98024.05;273921;1269;22404;-86
2023/07/01 15:36:58;;;;;;;11.80;9.70;;;;;;;23.63;89.06;98023.63;273252;1268;23659;-87
2023/07/01 15:42:59;;;;;;;12.00;9.90;;;;;;;23.66;88.72;98025.15;272996;1269;24193;-86
2023/07/01 15:49:01;;;;;;;10.10;9.10;;;;;;;23.71;88.02;98027.81;270805;1268;22540;-87
2023/07/01 15:55:04;;;;;;;11.40;10.30;;;;;;;23.74;87.55;98030.08;272123;1259;22370;-87
2023/07/01 16:01:08;;;;;;;11.60;9.90;;;;;;;23.70;86.64;98032.77;273680;1268;23228;-86
2023/07/01 16:07:55;;;;;;;15.00;10.00;;;;;;;23.62;86.59;98029.39;270787;1268;22639;-87
2023/07/01 16:13:59;;;;;;;12.30;9.70;;;;;;;23.60;86.75;98023.11;273532;1268;22212;-87
2023/07/01 16:20:01;;;;;;;12.10;10.50;;;;;;;23.56;86.67;98025.86;270795;1267;24042;-87
2023/07/01 16:26:07;;;;;;;11.50;10.30;;;;;;;23.48;86.85;98033.45;270612;1259;23096;-87
2023/07/01 16:32:14;;;;;;;14.20;12.40;;;;;;;23.41;87.00;98031.55;271854;1268;22617;-87
2023/07/01 16:38:27;;;;;;;13.80;12.40;;;;;;;23.38;85.98;98029.64;270695;1268;22119;-86
2023/07/01 16:44:30;;;;;;;8.90;6.90;;;;;;;23.34;85.89;98023.79;270704;1269;22603;-86
2023/07/01 16:50:57;;;;;;;8.70;6.70;;;;;;;23.15;86.63;98027.80;272531;1268;22222;-87
2023/07/01 16:56:59;;;;;;;12.40;6.40;;;;;;;23.04;87.28;98026.84;270877;1268;23233;-88
2023/07/01 17:03:12;;;;;;;7.30;6.00;;;;;;;22.94;87.43;98020.67;269511;1267;23277;-87
2023/07/01 17:09:37;;;;;;;6.80;6.00;;;;;;;22.86;88.04;98018.34;271686;1268;23337;-88
2023/07/01 17:15:43;;;;;;;7.70;6.50;;;;;;;22.81;88.30;98018.70;270042;1268;25250;-88
2023/07/01 17:29:30;;;;;;;7.60;5.90;;;;;;;22.64;88.57;98010.52;267052;1268;10001582;-87
2023/07/01 17:35:32;;;;;;;9.90;6.30;;;;;;;22.56;89.28;98008.20;273392;1268;23337;-86
2023/07/01 17:41:33;;;;;;;8.10;6.80;;;;;;;22.47;89.32;98004.60;272330;1269;22744;-87
2023/07/01 17:47:35;;;;;;;9.90;7.10;;;;;;;22.34;89.91;98001.40;272767;1267;22841;-87
2023/07/01 17:53:37;;;;;;;9.30;7.30;;;;;;;22.25;90.35;98000.25;272477;1268;24216;-87
2023/07/01 17:59:39;;;;;;;11.40;9.20;;;;;;;22.12;90.47;98004.50;273276;1267;22392;-88
2023/07/01 18:05:41;;;;;;;9.50;8.50;;;;;;;22.03;90.72;98008.71;273319;1269;22577;-86
2023/07/01 18:11:42;;;;;;;10.00;8.10;;;;;;;21.94;91.15;98014.69;273078;1261;224390;-88
2023/07/01 18:17:44;;;;;;;11.00;8.30;;;;;;;21.85;91.87;98015.42;272234;1268;22361;-87
2023/07/01 18:23:46;;;;;;;12.40;8.90;;;;;;;21.75;92.40;98010.77;272948;1268;23032;-88
2023/07/01 18:29:47;;;;;;;10.10;9.00;;;;;;;21.65;93.11;98006.38;273318;1268;22462;-86
2023/07/01 18:35:50;;;;;;;10.00;8.50;;;;;;;21.57;93.92;98000.07;273171;1266;24794;-88
2023/07/01 18:41:52;;;;;;;13.30;9.60;;;;;;;21.45;94.06;98001.67;272784;1268;22365;-89
2023/07/01 18:47:54;;;;;;;12.50;9.50;;;;;;;21.31;95.11;98009.78;270458;1269;23502;-86
2023/07/01 18:53:57;;;;;;;12.20;10.00;;;;;;;21.15;95.94;98009.17;270428;1268;22641;-87
2023/07/01 18:59:58;;;;;;;12.00;10.20;;;;;;;20.94;96.99;98009.59;271109;1268;22203;-87
2023/07/01 19:06:02;;;;;;;13.50;9.90;;;;;;;20.82;97.90;98012.58;273361;1266;22655;-87
2023/07/01 19:12:04;;;;;;;11.70;10.30;;;;;;;20.78;98.70;98018.58;273432;1268;22389;-87
2023/07/01 19:18:06;;;;;;;11.00;9.90;;;;;;;20.68;99.37;98027.30;273549;1268;22202;-88
2023/07/01 19:24:08;;;;;;;18.60;11.50;;;;;;;20.57;99.83;98031.11;271468;1269;22543;-87
2023/07/01 19:30:25;;;;;;;14.00;12.30;;;;;;;20.48;100.00;98037.02;269442;1268;25455;-87
2023/07/01 19:36:27;;;;;;;17.00;13.30;;;;;;;20.33;100.00;98038.55;270431;1268;22402;-88
2023/07/01 19:42:28;;;;;;;16.80;13.60;;;;;;;20.20;100.00;98034.45;272111;1269;25328;-87
2023/07/01 19:48:32;;;;;;;18.40;14.00;;;;;;;20.12;100.00;98030.02;269406;1270;24761;-87
2023/07/01 19:54:34;;;;;;;16.40;14.50;;;;;;;20.03;100.00;98028.11;270797;1268;22188;-87
2023/07/01 20:00:35;;;;;;;19.00;14.80;;;;;;;19.99;100.00;98028.59;270559;1259;22429;-87
2023/07/01 20:06:37;;;;;;;18.40;15.60;;;;;;;20.01;100.00;98027.23;273390;1260;22179;-86
2023/07/01 20:12:42;;;;;;;17.30;13.50;;;;;;;19.94;100.00;98027.45;273472;1257;22245;-87
2023/07/01 20:18:44;;;;;;;19.20;14.40;;;;;;;19.87;100.00;98026.08;273506;1269;22397;-87
2023/07/01 20:24:46;;;;;;;20.60;15.20;;;;;;;19.80;100.00;98028.13;273585;1269;22362;-87
2023/07/01 20:30:52;;;;;;;21.40;15.40;;;;;;;19.67;100.00;98030.78;273444;1268;22336;-86
2023/07/01 20:36:54;;;;;;;21.10;16.40;;;;;;;19.60;100.00;98029.33;272266;1254;23408;-86
2023/07/01 20:42:56;;;;;;;20.00;16.60;;;;;;;19.51;100.00;98035.25;271220;1261;22503;-86
2023/07/01 20:48:58;;;;;;;18.50;16.00;;;;;;;19.41;100.00;98035.89;270724;1257;22554;-87
2023/07/01 20:54:59;;;;;;;20.70;17.00;;;;;;;19.32;100.00;98036.23;269929;1269;22553;-87
2023/07/01 21:01:14;;;;;;;20.70;17.10;;;;;;;19.23;100.00;98033.09;270171;1253;24072;-87
2023/07/01 21:07:17;;;;;;;21.50;17.70;;;;;;;19.14;100.00;98027.09;271405;1260;22277;-87
2023/07/01 21:13:22;;;;;;;19.50;17.40;;;;;;;19.08;100.00;98020.27;271658;1267;22300;-87
2023/07/01 21:19:24;;;;;;;19.90;17.10;;;;;;;19.04;100.00;98018.52;270688;1260;22922;-87
2023/07/01 21:25:28;;;;;;;17.20;15.10;;;;;;;19.03;100.00;98022.21;270376;1257;22772;-87
2023/07/01 21:31:32;;;;;;;18.90;16.30;;;;;;;18.99;100.00;98020.77;270196;1267;23392;-86
2023/07/01 21:37:34;;;;;;;21.80;17.40;;;;;;;18.96;100.00;98021.04;271027;1267;22724;-86
2023/07/01 21:43:39;;;;;;;21.90;18.00;;;;;;;18.89;100.00;98021.56;272606;1267;22969;-86
2023/07/01 21:49:40;;;;;;;20.80;17.60;;;;;;;18.75;100.00;98031.80;271865;1258;22614;-86
2023/07/01 21:55:42;;;;;;;19.50;17.30;;;;;;;18.49;100.00;98043.67;270294;1257;22542;-86
2023/07/01 22:01:49;;;;;;;23.10;20.00;;;;;;;18.36;100.00;98046.25;270812;1267;23743;-86
2023/07/01 22:07:52;;;;;;;21.90;19.60;;;;;;;18.31;100.00;98058.52;272088;1261;22287;-87
2023/07/01 22:13:53;;;;;;;26.70;20.50;;;;;;;18.32;100.00;98056.77;272656;1260;22314;-86
2023/07/01 22:20:01;;;;;;;28.50;23.10;;;;;;;18.38;100.00;98052.05;271488;1268;22544;-85
2023/07/01 22:26:11;;;;;;;32.10;23.30;;;;;;;18.50;100.00;98043.25;273742;1263;22369;-87
2023/07/01 22:32:37;;;;;;;26.80;22.60;;;;;;;18.60;100.00;98048.35;274072;1253;23341;-86
2023/07/01 22:39:00;;;;;;;25.80;21.50;;;;;;;18.62;100.00;98049.14;273551;1263;22236;-87
2023/07/01 22:45:27;;;;;;;26.40;21.40;;;;;;;18.60;100.00;98050.02;273240;1267;22204;-87
2023/07/01 22:51:29;;;;;;;;;;;;;;;18.57;100.00;98050.45;272940;1267;22524;-87
2023/07/01 22:57:32;;;;;;;24.30;21.30;;;;;;;18.57;100.00;98054.95;273995;1271;22198;-87
2023/07/01 23:04:16;;;;;;;27.60;21.60;;;;;;;18.58;100.00;98058.40;273985;1263;22426;-86
2023/07/01 23:10:33;;;;;;;29.70;21.10;;;;;;;18.58;100.00;98066.16;273891;1269;22209;-86
2023/07/01 23:16:35;;;;;;;28.80;22.10;;;;;;;18.58;100.00;98064.57;274097;1271;22188;-85
2023/07/01 23:22:41;;;;;;;26.30;21.20;;;;;;;18.64;100.00;98056.42;273898;1256;22217;-86
2023/07/01 23:28:44;;;;;;;25.10;20.50;;;;;;;18.68;100.00;98051.70;273064;1267;22199;-86
2023/07/01 23:34:48;;;;;;;27.20;23.20;;;;;;;18.69;100.00;98053.02;273029;1268;22954;-86
2023/07/01 23:40:52;;;;;;;28.00;24.00;;;;;;;18.64;100.00;98048.70;272933;1268;22333;-85
2023/07/01 23:46:54;;;;;;;25.60;21.20;;;;;;;18.61;100.00;98046.42;271939;1259;24933;-86
2023/07/01 23:52:56;;;;;;;27.90;22.70;;;;;;;18.57;100.00;98041.16;270358;1267;22542;-85
2023/07/01 23:59:08;;;;;;;30.70;23.90;;;;;;;18.49;100.00;98041.45;270273;1267;23334;-86
